createdAt,value
2018-09-04T00:01:13.319Z,10.43
2018-09-04T00:03:40.492Z,11.57
2018-09-04T00:06:07.757Z,9.77
2018-09-04T00:08:34.882Z,10.33
2018-09-04T00:11:02.204Z,9.97
2018-09-04T00:13:31.473Z,10.23
2018-09-04T00:15:58.585Z,10.53
2018-09-04T00:18:25.920Z,9.97
2018-09-04T00:20:53.032Z,10.40
2018-09-04T00:23:20.169Z,9.70
2018-09-04T00:25:47.307Z,13.47
2018-09-04T00:28:14.391Z,11.00
2018-09-04T00:30:41.661Z,10.83
2018-09-04T00:33:08.913Z,9.40
2018-09-04T00:35:36.035Z,10.10
2018-09-04T00:38:04.277Z,10.93
2018-09-04T00:40:31.482Z,9.13
2018-09-04T00:42:58.650Z,11.00
2018-09-04T00:45:25.776Z,11.00
2018-09-04T00:47:52.914Z,9.73
2018-09-04T00:50:20.000Z,11.30
2018-09-04T00:52:47.171Z,10.43
2018-09-04T00:55:15.235Z,11.03
2018-09-04T00:57:42.351Z,9.20
2018-09-04T01:00:09.476Z,11.67
2018-09-04T01:02:36.643Z,9.77
2018-09-04T01:05:03.809Z,11.13
2018-09-04T01:07:31.019Z,10.40
2018-09-04T01:09:58.175Z,11.27
2018-09-04T01:12:25.358Z,9.53
2018-09-04T01:14:55.023Z,11.37
2018-09-04T01:17:22.273Z,9.73
2018-09-04T01:19:49.637Z,8.90
2018-09-04T01:22:16.728Z,9.50
2018-09-04T01:24:43.883Z,10.80
2018-09-04T01:27:11.001Z,10.43
2018-09-04T01:29:38.128Z,10.47
2018-09-04T01:32:05.502Z,10.50
2018-09-04T01:34:32.615Z,9.20
2018-09-04T01:36:59.714Z,9.97
2018-09-04T01:39:26.953Z,10.23
2018-09-04T01:41:54.067Z,11.77
2018-09-04T01:44:21.273Z,9.33
2018-09-04T01:46:48.430Z,9.07
2018-09-04T01:49:15.533Z,10.00
2018-09-04T01:51:42.640Z,10.27
2018-09-04T01:54:09.817Z,9.63
2018-09-04T01:56:37.006Z,11.83
2018-09-04T01:59:04.215Z,11.87
2018-09-04T02:01:32.273Z,10.40
2018-09-04T02:03:59.382Z,10.53
2018-09-04T02:06:26.516Z,11.87
2018-09-04T02:08:53.755Z,12.33
2018-09-04T02:11:20.860Z,12.17
2018-09-04T02:13:47.993Z,11.97
2018-09-04T02:16:15.193Z,11.50
2018-09-04T02:18:42.301Z,10.87
2018-09-04T02:21:09.518Z,15.27
2018-09-04T02:23:36.668Z,12.73
2018-09-04T02:26:03.830Z,13.77
2018-09-04T02:28:31.001Z,15.37
2018-09-04T02:30:58.157Z,15.43
2018-09-04T02:33:25.340Z,15.73
2018-09-04T02:35:52.457Z,15.10
2018-09-04T02:38:19.638Z,15.27
2018-09-04T02:40:46.711Z,14.00
2018-09-04T02:43:13.829Z,14.77
2018-09-04T02:45:41.941Z,13.20
2018-09-04T02:48:09.058Z,11.07
2018-09-04T02:50:36.177Z,12.87
2018-09-04T02:53:03.343Z,12.97
2018-09-04T02:55:30.511Z,10.57
2018-09-04T02:57:57.734Z,13.37
2018-09-04T03:00:24.962Z,11.47
2018-09-04T03:02:52.059Z,10.93
2018-09-04T03:05:19.163Z,10.93
2018-09-04T03:07:46.303Z,12.73
2018-09-04T03:10:13.516Z,11.10
2018-09-04T03:12:40.639Z,9.37
2018-09-04T03:15:07.822Z,9.13
2018-09-04T03:17:34.926Z,10.33
2018-09-04T03:20:02.111Z,11.57
2018-09-04T03:22:29.341Z,9.60
2018-09-04T03:24:56.463Z,10.17
2018-09-04T03:27:23.596Z,9.60
2018-09-04T03:29:50.748Z,10.63
2018-09-04T03:32:17.835Z,10.70
2018-09-04T03:34:45.060Z,10.37
2018-09-04T03:37:12.287Z,9.37
2018-09-04T03:39:39.421Z,9.53
2018-09-04T03:42:06.525Z,10.47
2018-09-04T03:44:33.672Z,9.70
2018-09-04T03:47:00.857Z,9.40
2018-09-04T03:49:31.125Z,10.17
2018-09-04T03:51:58.346Z,9.40
2018-09-04T03:54:25.430Z,9.67
2018-09-04T03:56:52.527Z,9.47
2018-09-04T03:59:19.778Z,10.17
2018-09-04T04:01:46.942Z,9.53
2018-09-04T04:04:14.116Z,11.37
2018-09-04T04:06:41.512Z,9.60
2018-09-04T04:09:09.867Z,10.33
2018-09-04T04:11:37.051Z,9.00
2018-09-04T04:14:04.257Z,9.37
2018-09-04T04:16:31.383Z,9.73
2018-09-04T04:18:58.688Z,9.77
2018-09-04T04:21:25.840Z,10.43
2018-09-04T04:23:53.093Z,10.03
2018-09-04T04:26:20.271Z,11.47
2018-09-04T04:28:47.543Z,8.87
2018-09-04T04:31:14.643Z,8.93
2018-09-04T04:33:41.771Z,8.80
2018-09-04T04:36:09.058Z,9.47
2018-09-04T04:38:36.244Z,9.93
2018-09-04T04:41:03.349Z,9.33
2018-09-04T04:43:30.574Z,9.67
2018-09-04T04:45:57.677Z,10.00
2018-09-04T04:48:24.944Z,9.07
2018-09-04T04:50:52.126Z,9.73
2018-09-04T04:53:19.277Z,10.60
2018-09-04T04:55:46.372Z,11.47
2018-09-04T04:58:13.516Z,10.67
2018-09-04T05:00:40.707Z,9.23
2018-09-04T05:03:07.877Z,10.40
2018-09-04T05:05:35.020Z,11.03
2018-09-04T05:08:02.159Z,8.50
2018-09-04T05:10:29.368Z,9.27
2018-09-04T05:12:56.680Z,9.10
2018-09-04T05:15:23.856Z,9.23
2018-09-04T05:17:50.953Z,10.53
2018-09-04T05:20:20.833Z,9.37
2018-09-04T05:22:48.020Z,9.30
2018-09-04T05:25:17.348Z,12.00
2018-09-04T05:27:44.580Z,21.23
2018-09-04T05:30:11.779Z,9.77
2018-09-04T05:33:45.019Z,9.10
2018-09-04T05:36:12.388Z,9.17
2018-09-04T05:38:39.561Z,9.57
2018-09-04T05:41:06.979Z,9.03
2018-09-04T05:44:05.018Z,7.80
2018-09-04T05:46:38.105Z,10.17
2018-09-04T05:49:05.426Z,9.67
2018-09-04T05:51:32.532Z,10.37
2018-09-04T05:54:01.759Z,8.50
2018-09-04T05:56:28.869Z,10.30
2018-09-04T05:58:56.078Z,8.40
2018-09-04T06:01:23.393Z,7.23
2018-09-04T06:03:50.493Z,7.23
2018-09-04T06:06:17.593Z,11.27
2018-09-04T06:08:44.748Z,9.40
2018-09-04T06:11:11.924Z,7.57
2018-09-04T06:13:39.128Z,7.80
2018-09-04T06:16:06.305Z,8.77
2018-09-04T06:18:33.390Z,8.23
2018-09-04T06:21:00.501Z,8.47
2018-09-04T06:23:27.748Z,9.47
2018-09-04T06:25:54.932Z,8.47
2018-09-04T06:28:22.146Z,7.43
2018-09-04T06:30:49.353Z,9.23
2018-09-04T06:33:16.549Z,10.47
2018-09-04T06:35:43.696Z,8.90
2018-09-04T06:38:10.934Z,9.20
2018-09-04T06:40:38.044Z,8.20
2018-09-04T06:43:05.210Z,8.73
2018-09-04T06:45:32.367Z,8.23
2018-09-04T06:47:59.567Z,7.17
2018-09-04T06:50:26.764Z,8.60
2018-09-04T06:52:53.932Z,8.57
2018-09-04T06:55:21.048Z,7.47
2018-09-04T06:57:48.192Z,7.73
2018-09-04T07:00:15.777Z,10.47
2018-09-04T07:02:43.853Z,7.70
2018-09-04T07:05:11.743Z,10.73
2018-09-04T07:07:38.937Z,12.70
2018-09-04T07:10:06.124Z,8.47
2018-09-04T07:12:33.326Z,10.77
2018-09-04T07:15:00.642Z,8.30
2018-09-04T07:17:28.856Z,13.00
2018-09-04T07:19:55.996Z,8.70
2018-09-04T07:22:23.150Z,11.03
2018-09-04T07:24:50.357Z,8.47
2018-09-04T07:27:17.564Z,9.67
2018-09-04T07:29:44.773Z,8.53
2018-09-04T07:32:11.909Z,9.70
2018-09-04T07:34:39.021Z,6.93
2018-09-04T07:37:06.364Z,7.23
2018-09-04T07:39:33.540Z,9.20
2018-09-04T07:42:00.673Z,9.40
2018-09-04T07:44:27.844Z,7.93
2018-09-04T07:46:55.033Z,9.97
2018-09-04T07:49:22.248Z,8.60
2018-09-04T07:51:49.488Z,10.10
2018-09-04T07:54:16.619Z,7.73
2018-09-04T07:56:44.489Z,9.43
2018-09-04T07:59:11.647Z,8.57
2018-09-04T08:01:38.845Z,9.23
2018-09-04T08:04:06.058Z,8.53
2018-09-04T08:06:33.254Z,10.27
2018-09-04T08:09:00.397Z,7.93
2018-09-04T08:11:27.556Z,9.77
2018-09-04T08:14:05.248Z,13.03
2018-09-04T08:16:32.861Z,9.33
2018-09-04T08:18:59.960Z,8.10
2018-09-04T08:21:27.116Z,7.97
2018-09-04T08:23:54.316Z,10.03
2018-09-04T08:26:22.504Z,9.57
2018-09-04T08:28:49.768Z,9.03
2018-09-04T08:31:16.923Z,10.43
2018-09-04T08:33:44.052Z,7.57
2018-09-04T08:36:11.305Z,8.73
2018-09-04T08:38:44.278Z,7.33
2018-09-04T08:41:11.444Z,9.57
2018-09-04T08:43:38.645Z,8.73
2018-09-04T08:46:06.149Z,9.50
2018-09-04T08:48:33.390Z,7.47
2018-09-04T08:51:01.271Z,10.40
2018-09-04T08:53:28.464Z,10.77
2018-09-04T08:55:55.593Z,8.50
2018-09-04T08:58:22.855Z,6.67
2018-09-04T09:00:50.071Z,8.43
2018-09-04T09:03:17.336Z,10.07
2018-09-04T09:05:44.494Z,6.23
2018-09-04T09:08:15.521Z,6.20
2018-09-04T09:10:42.715Z,7.13
2018-09-04T09:13:10.113Z,6.37
2018-09-04T09:15:37.332Z,5.63
2018-09-04T09:18:04.520Z,7.03
2018-09-04T09:20:31.644Z,9.07
2018-09-04T09:22:58.796Z,8.07
2018-09-04T09:25:26.081Z,8.10
2018-09-04T09:27:53.315Z,5.60
2018-09-04T09:30:20.427Z,5.90
2018-09-04T09:32:47.590Z,7.03
2018-09-04T09:35:14.730Z,7.10
2018-09-04T09:37:41.977Z,7.90
2018-09-04T09:40:09.224Z,6.43
2018-09-04T09:42:36.373Z,5.07
2018-09-04T09:45:03.549Z,4.37
2018-09-04T09:47:30.744Z,9.00
2018-09-04T09:49:57.961Z,7.60
2018-09-04T09:52:25.152Z,6.40
2018-09-04T09:54:52.306Z,6.87
2018-09-04T09:57:19.598Z,7.67
2018-09-04T09:59:46.731Z,7.87
2018-09-04T10:02:18.233Z,6.67
2018-09-04T10:04:45.446Z,4.90
2018-09-04T10:07:12.593Z,9.33
2018-09-04T10:09:39.767Z,5.90
2018-09-04T10:12:07.009Z,4.50
2018-09-04T10:14:34.152Z,6.17
2018-09-04T10:17:01.452Z,8.80
2018-09-04T10:19:28.596Z,7.50
2018-09-04T10:21:55.775Z,5.70
2018-09-04T10:24:22.916Z,4.90
2018-09-04T10:26:50.072Z,7.40
2018-09-04T10:29:17.300Z,6.67
2018-09-04T10:31:44.487Z,7.93
2018-09-04T10:34:13.706Z,7.07
2018-09-04T10:36:43.790Z,5.13
2018-09-04T10:39:16.556Z,6.43
2018-09-04T10:41:43.798Z,7.20
2018-09-04T10:44:11.997Z,5.43
2018-09-04T10:46:39.107Z,4.80
2018-09-04T10:49:06.292Z,4.87
2018-09-04T10:51:33.420Z,5.10
2018-09-04T10:54:00.671Z,5.77
2018-09-04T10:56:27.863Z,6.07
2018-09-04T10:58:55.061Z,4.80
2018-09-04T11:01:22.243Z,5.03
2018-09-04T11:03:49.484Z,5.67
2018-09-04T11:06:16.688Z,5.07
2018-09-04T11:08:43.800Z,4.77
2018-09-04T11:11:10.974Z,5.60
2018-09-04T11:13:38.180Z,5.73
2018-09-04T11:16:05.568Z,5.30
2018-09-04T11:18:32.880Z,5.93
2018-09-04T11:20:59.995Z,6.97
2018-09-04T11:23:27.128Z,7.40
2018-09-04T11:25:54.322Z,7.93
2018-09-04T11:28:21.549Z,4.87
2018-09-04T11:30:48.770Z,5.53
2018-09-04T11:33:16.025Z,6.77
2018-09-04T11:35:43.141Z,4.93
2018-09-04T11:38:10.272Z,4.43
2018-09-04T11:40:37.602Z,5.67
2018-09-04T11:43:05.285Z,4.63
2018-09-04T11:45:32.408Z,5.30
2018-09-04T11:48:00.101Z,7.90
2018-09-04T11:50:27.374Z,4.77
2018-09-04T11:52:54.648Z,6.33
2018-09-04T11:55:21.983Z,4.73
2018-09-04T11:57:49.099Z,5.53
2018-09-04T12:00:21.228Z,5.10
2018-09-04T12:02:48.437Z,5.83
2018-09-04T12:05:15.664Z,4.57
2018-09-04T12:07:42.909Z,5.07
2018-09-04T12:10:10.052Z,7.33
2018-09-04T12:12:37.383Z,6.57
2018-09-04T12:15:04.604Z,5.17
2018-09-04T12:17:33.934Z,5.80
2018-09-04T12:20:08.724Z,4.50
2018-09-04T12:22:35.836Z,4.53
2018-09-04T12:25:03.030Z,6.40
2018-09-04T12:27:31.245Z,5.40
2018-09-04T12:29:58.608Z,4.97
2018-09-04T12:32:25.809Z,4.83
2018-09-04T12:34:52.976Z,5.80
2018-09-04T12:37:20.108Z,7.63
2018-09-04T12:39:52.906Z,7.33
2018-09-04T12:42:20.262Z,5.77
2018-09-04T12:44:47.523Z,4.40
2018-09-04T12:47:14.691Z,8.00
2018-09-04T12:49:41.806Z,5.17
2018-09-04T12:52:08.982Z,5.07
2018-09-04T12:54:37.134Z,5.57
2018-09-04T12:57:04.393Z,4.47
2018-09-04T12:59:32.052Z,5.90
2018-09-04T13:01:59.295Z,6.60
2018-09-04T13:04:26.574Z,5.50
2018-09-04T13:06:53.782Z,5.53
2018-09-04T13:09:24.612Z,5.47
2018-09-04T13:11:51.888Z,8.97
2018-09-04T13:14:19.495Z,7.47
2018-09-04T13:16:46.709Z,5.57
2018-09-04T13:19:15.256Z,6.00
2018-09-04T13:21:42.440Z,4.97
2018-09-04T13:24:11.750Z,6.17
2018-09-04T13:26:39.021Z,5.53
2018-09-04T13:29:06.581Z,6.00
2018-09-04T13:31:34.333Z,6.83
2018-09-04T13:34:02.284Z,6.03
2018-09-04T13:36:30.063Z,6.53
2018-09-04T13:38:57.945Z,5.07
2018-09-04T13:41:28.497Z,6.33
2018-09-04T13:43:56.983Z,6.60
2018-09-04T13:46:24.876Z,7.03
2018-09-04T13:48:53.728Z,8.43
2018-09-04T13:51:21.314Z,4.97
2018-09-04T13:53:48.727Z,4.80
2018-09-04T13:56:16.761Z,5.50
2018-09-04T13:58:44.310Z,6.93
2018-09-04T14:01:11.852Z,7.20
2018-09-04T14:03:39.728Z,5.43
2018-09-04T14:06:07.531Z,5.67
2018-09-04T14:08:34.866Z,6.17
2018-09-04T14:11:03.234Z,7.77
2018-09-04T14:13:30.495Z,4.83
2018-09-04T14:16:00.827Z,7.27
2018-09-04T14:18:28.061Z,5.40
2018-09-04T14:20:55.678Z,7.43
2018-09-04T14:23:23.156Z,6.63
2018-09-04T14:25:50.786Z,8.53
2018-09-04T14:28:40.971Z,6.80
2018-09-04T14:30:45.438Z,6.70
2018-09-04T14:33:12.652Z,7.43
2018-09-04T14:35:41.971Z,7.17
2018-09-04T14:38:09.489Z,5.70
2018-09-04T14:40:36.636Z,5.87
2018-09-04T14:43:03.878Z,8.70
2018-09-04T14:45:31.335Z,6.10
2018-09-04T14:47:58.601Z,5.80
2018-09-04T14:50:25.852Z,9.57
2018-09-04T14:52:53.004Z,7.00
2018-09-04T14:55:20.173Z,8.00
2018-09-04T14:57:47.572Z,5.37
2018-09-04T15:00:14.841Z,10.77
2018-09-04T15:02:41.954Z,8.13
2018-09-04T15:05:09.448Z,8.03
2018-09-04T15:07:36.612Z,8.27
2018-09-04T15:10:03.927Z,7.27
2018-09-04T15:12:31.276Z,8.83
2018-09-04T15:14:58.458Z,11.57
2018-09-04T15:17:25.608Z,8.53
2018-09-04T15:19:52.818Z,9.20
2018-09-04T15:22:20.130Z,9.47
2018-09-04T15:24:47.349Z,11.47
2018-09-04T15:27:14.569Z,10.10
2018-09-04T15:29:41.680Z,9.37
2018-09-04T15:32:09.174Z,10.17
2018-09-04T15:34:36.617Z,8.20
2018-09-04T15:37:03.969Z,10.83
2018-09-04T15:39:31.094Z,10.90
2018-09-04T15:41:58.318Z,10.70
2018-09-04T15:44:25.532Z,10.27
2018-09-04T15:46:52.856Z,11.20
2018-09-04T15:49:25.877Z,11.13
2018-09-04T15:51:53.040Z,12.30
2018-09-04T15:54:20.221Z,9.37
2018-09-04T15:56:47.530Z,10.10
2018-09-04T15:59:14.732Z,12.63
2018-09-04T16:01:41.917Z,10.67
2018-09-04T16:04:10.009Z,10.20
2018-09-04T16:06:37.712Z,9.27
2018-09-04T16:09:10.095Z,12.13
2018-09-04T16:11:37.490Z,9.57
2018-09-04T16:14:04.746Z,11.30
2018-09-04T16:16:31.968Z,8.67
2018-09-04T16:18:59.157Z,8.63
2018-09-04T16:21:26.329Z,9.27
2018-09-04T16:23:53.651Z,7.33
2018-09-04T16:26:20.875Z,7.33
2018-09-04T16:28:48.041Z,10.40
2018-09-04T16:31:15.387Z,7.67
2018-09-04T16:33:42.568Z,8.97
2018-09-04T16:36:10.221Z,10.13
2018-09-04T16:38:37.621Z,6.63
2018-09-04T16:41:04.813Z,8.13
2018-09-04T16:43:31.988Z,6.90
2018-09-04T16:45:59.326Z,5.77
2018-09-04T16:48:29.854Z,6.77
2018-09-04T16:50:57.420Z,5.37
2018-09-04T16:53:24.679Z,6.67
2018-09-04T16:55:51.882Z,7.37
2018-09-04T16:58:19.118Z,5.90
2018-09-04T17:00:46.466Z,7.07
2018-09-04T17:03:13.661Z,6.40
2018-09-04T17:05:41.032Z,5.83
2018-09-04T17:08:08.613Z,8.83
2018-09-04T17:10:35.807Z,6.30
2018-09-04T17:13:03.160Z,7.53
2018-09-04T17:15:30.482Z,7.13
2018-09-04T17:17:57.682Z,6.13
2018-09-04T17:20:24.972Z,5.90
2018-09-04T17:22:52.372Z,7.73
2018-09-04T17:25:20.727Z,6.20
2018-09-04T17:27:47.956Z,6.13
2018-09-04T17:30:15.219Z,5.60
2018-09-04T17:32:42.372Z,8.77
2018-09-04T17:35:09.541Z,5.30
2018-09-04T17:37:36.952Z,6.17
2018-09-04T17:40:04.288Z,6.20
2018-09-04T17:42:31.466Z,7.23
2018-09-04T17:44:59.012Z,7.13
2018-09-04T17:47:26.199Z,5.70
2018-09-04T17:49:53.488Z,6.67
2018-09-04T17:52:20.814Z,6.83
2018-09-04T17:54:48.065Z,6.60
2018-09-04T17:57:16.058Z,4.60
2018-09-04T17:59:43.249Z,6.33
2018-09-04T18:02:10.874Z,5.00
2018-09-04T18:04:38.720Z,10.60
2018-09-04T18:07:05.948Z,4.83
2018-09-04T18:09:33.105Z,6.20
2018-09-04T18:12:00.260Z,5.57
2018-09-04T18:14:27.571Z,6.30
2018-09-04T18:16:54.807Z,8.33
2018-09-04T18:19:22.029Z,5.33
2018-09-04T18:21:49.375Z,6.23
2018-09-04T18:24:16.551Z,7.20
2018-09-04T18:26:43.837Z,6.23
2018-09-04T18:29:11.308Z,7.83
2018-09-04T18:31:39.460Z,5.40
2018-09-04T18:34:06.684Z,6.07
2018-09-04T18:36:33.938Z,7.30
2018-09-04T18:39:01.453Z,5.87
2018-09-04T18:41:28.780Z,6.10
2018-09-04T18:43:56.177Z,7.27
2018-09-04T18:46:23.362Z,6.30
2018-09-04T18:48:53.847Z,7.50
2018-09-04T18:51:21.505Z,7.57
2018-09-04T18:53:48.731Z,8.07
2018-09-04T18:56:15.862Z,8.67
2018-09-04T18:58:43.165Z,7.57
2018-09-04T19:01:10.644Z,8.37
2018-09-04T19:03:38.336Z,8.70
2018-09-04T19:06:05.749Z,7.37
2018-09-04T19:08:32.909Z,6.87
2018-09-04T19:11:00.081Z,7.47
2018-09-04T19:13:27.301Z,8.00
2018-09-04T19:15:54.584Z,6.67
2018-09-04T19:18:21.849Z,5.87
2018-09-04T19:20:49.058Z,6.07
2018-09-04T19:23:16.201Z,7.67
2018-09-04T19:25:43.321Z,6.80
2018-09-04T19:28:11.019Z,5.97
2018-09-04T19:30:38.556Z,6.10
2018-09-04T19:33:05.744Z,6.93
2018-09-04T19:35:32.944Z,6.63
2018-09-04T19:38:00.080Z,7.83
2018-09-04T19:40:27.544Z,6.10
2018-09-04T19:42:54.853Z,8.13
2018-09-04T19:45:22.047Z,8.10
2018-09-04T19:47:49.340Z,7.97
2018-09-04T19:50:16.512Z,6.67
2018-09-04T19:52:43.755Z,6.63
2018-09-04T19:55:11.867Z,7.13
2018-09-04T19:57:40.060Z,6.43
2018-09-04T20:00:08.049Z,6.23
2018-09-04T20:02:35.211Z,6.67
2018-09-04T20:05:02.547Z,5.63
2018-09-04T20:07:29.887Z,6.37
2018-09-04T20:09:57.015Z,6.73
2018-09-04T20:12:24.312Z,6.00
2018-09-04T20:14:51.585Z,7.63
2018-09-04T20:17:18.888Z,6.33
2018-09-04T20:19:46.163Z,6.53
2018-09-04T20:22:13.342Z,7.70
2018-09-04T20:24:40.857Z,6.17
2018-09-04T20:27:08.668Z,7.80
2018-09-04T20:29:35.962Z,8.73
2018-09-04T20:32:03.353Z,5.67
2018-09-04T20:34:30.544Z,6.70
2018-09-04T20:36:57.790Z,6.53
2018-09-04T20:39:24.957Z,7.13
2018-09-04T20:41:52.336Z,6.13
2018-09-04T20:44:19.560Z,7.57
2018-09-04T20:46:46.769Z,6.53
2018-09-04T20:49:15.229Z,6.20
2018-09-04T20:51:42.376Z,6.20
2018-09-04T20:54:10.337Z,6.23
2018-09-04T20:56:38.089Z,6.57
2018-09-04T20:59:16.839Z,5.93
2018-09-04T21:01:55.499Z,5.53
2018-09-04T21:04:34.542Z,5.90
2018-09-04T21:07:00.856Z,7.40
2018-09-04T21:10:02.984Z,5.67
2018-09-04T21:12:30.326Z,6.57
2018-09-04T21:14:58.171Z,7.70
2018-09-04T21:17:25.471Z,10.17
2018-09-04T21:19:52.737Z,7.20
2018-09-04T21:22:19.956Z,7.00
2018-09-04T21:24:47.254Z,7.17
2018-09-04T21:27:14.690Z,7.50
2018-09-04T21:29:42.057Z,6.63
2018-09-04T21:32:09.735Z,7.70
2018-09-04T21:34:37.218Z,7.83
2018-09-04T21:37:04.788Z,7.30
2018-09-04T21:39:32.176Z,7.63
2018-09-04T21:41:59.466Z,6.50
2018-09-04T21:44:26.920Z,8.10
2018-09-04T21:46:54.204Z,6.10
2018-09-04T21:49:21.524Z,6.73
2018-09-04T21:51:48.841Z,7.60
2018-09-04T21:54:16.029Z,7.00
2018-09-04T21:56:43.202Z,6.33
2018-09-04T21:59:10.431Z,6.83
2018-09-04T22:01:38.073Z,7.10
2018-09-04T22:04:05.388Z,8.57
2018-09-04T22:06:32.859Z,7.67
2018-09-04T22:08:59.986Z,7.90
2018-09-04T22:11:27.584Z,7.73
2018-09-04T22:13:54.727Z,8.13
2018-09-04T22:16:21.987Z,7.60
2018-09-04T22:18:49.305Z,8.70
2018-09-04T22:21:16.427Z,6.53
2018-09-04T22:23:43.616Z,7.83
2018-09-04T22:26:10.792Z,7.13
2018-09-04T22:28:40.246Z,7.67
2018-09-04T22:31:07.635Z,7.10
2018-09-04T22:33:34.822Z,8.17
2018-09-04T22:36:01.985Z,7.00
2018-09-04T22:38:29.565Z,7.47
2018-09-04T22:40:56.892Z,6.77
2018-09-04T22:43:24.123Z,7.13
2018-09-04T22:45:51.593Z,8.43
2018-09-04T22:48:18.963Z,8.67
2018-09-04T22:50:52.044Z,7.10
2018-09-04T22:53:19.432Z,6.87
2018-09-04T22:55:46.985Z,7.60
2018-09-04T22:58:14.200Z,6.93
2018-09-04T23:00:41.539Z,7.90
2018-09-04T23:03:09.715Z,8.17
2018-09-04T23:05:37.112Z,7.93
2018-09-04T23:08:04.689Z,7.63
2018-09-04T23:10:31.880Z,8.43
2018-09-04T23:12:59.574Z,8.23
2018-09-04T23:15:26.900Z,9.00
2018-09-04T23:17:54.232Z,7.83
2018-09-04T23:20:21.509Z,8.17
2018-09-04T23:22:48.711Z,8.13
2018-09-04T23:25:15.864Z,8.20
2018-09-04T23:27:42.980Z,8.77
2018-09-04T23:30:10.746Z,8.90
2018-09-04T23:32:39.537Z,8.70
2018-09-04T23:35:06.897Z,9.47
2018-09-04T23:37:34.156Z,8.80
2018-09-04T23:40:01.520Z,9.53
2018-09-04T23:42:30.780Z,10.77
2018-09-04T23:44:58.165Z,10.10
2018-09-04T23:47:25.478Z,10.90
2018-09-04T23:49:52.664Z,9.40
2018-09-04T23:52:19.923Z,8.63
2018-09-04T23:54:47.232Z,9.73
2018-09-04T23:57:14.419Z,8.90
2018-09-04T23:59:41.715Z,8.40
